sensor_id;sensor_type;location;lat;lon;timestamp;P1;durP1;ratioP1;P2;durP2;ratioP2
31818;SDS011;18384;48.860;9.188;2022-08-19T00:01:45;17.35;;;11.82;;
31818;SDS011;18384;48.860;9.188;2022-08-19T00:04:15;20.85;;;12.15;;
31818;SDS011;18384;48.860;9.188;2022-08-19T00:06:46;21.58;;;12.07;;
31818;SDS011;18384;48.860;9.188;2022-08-19T00:09:14;17.52;;;12.10;;
31818;SDS011;18384;48.860;9.188;2022-08-19T00:11:42;22.08;;;12.63;;
31818;SDS011;18384;48.860;9.188;2022-08-19T00:14:10;17.02;;;12.50;;
31818;SDS011;18384;48.860;9.188;2022-08-19T00:16:40;18.15;;;12.18;;
31818;SDS011;18384;48.860;9.188;2022-08-19T00:19:08;13.68;;;10.63;;
31818;SDS011;18384;48.860;9.188;2022-08-19T00:21:35;15.25;;;11.55;;
31818;SDS011;18384;48.860;9.188;2022-08-19T00:24:04;23.90;;;12.50;;
31818;SDS011;18384;48.860;9.188;2022-08-19T00:26:33;18.27;;;11.90;;
31818;SDS011;18384;48.860;9.188;2022-08-19T00:28:59;16.50;;;11.45;;
31818;SDS011;18384;48.860;9.188;2022-08-19T00:31:26;17.35;;;11.70;;
31818;SDS011;18384;48.860;9.188;2022-08-19T00:33:53;17.80;;;12.37;;
31818;SDS011;18384;48.860;9.188;2022-08-19T00:36:20;20.58;;;11.85;;
31818;SDS011;18384;48.860;9.188;2022-08-19T00:38:46;20.08;;;12.50;;
31818;SDS011;18384;48.860;9.188;2022-08-19T00:41:13;16.65;;;11.50;;
31818;SDS011;18384;48.860;9.188;2022-08-19T00:43:43;15.48;;;12.23;;
31818;SDS011;18384;48.860;9.188;2022-08-19T00:46:21;17.55;;;12.52;;
31818;SDS011;18384;48.860;9.188;2022-08-19T00:48:47;16.37;;;12.23;;
31818;SDS011;18384;48.860;9.188;2022-08-19T00:51:13;20.33;;;12.18;;
31818;SDS011;18384;48.860;9.188;2022-08-19T00:53:39;14.73;;;11.30;;
31818;SDS011;18384;48.860;9.188;2022-08-19T00:58:32;18.33;;;11.52;;
31818;SDS011;18384;48.860;9.188;2022-08-19T01:01:00;20.33;;;12.48;;
31818;SDS011;18384;48.860;9.188;2022-08-19T01:03:28;18.40;;;13.20;;
31818;SDS011;18384;48.860;9.188;2022-08-19T01:05:54;19.55;;;12.35;;
31818;SDS011;18384;48.860;9.188;2022-08-19T01:08:21;19.80;;;12.45;;
31818;SDS011;18384;48.860;9.188;2022-08-19T01:10:50;17.17;;;11.77;;
31818;SDS011;18384;48.860;9.188;2022-08-19T01:13:23;18.48;;;12.35;;
31818;SDS011;18384;48.860;9.188;2022-08-19T01:16:03;24.25;;;12.60;;
31818;SDS011;18384;48.860;9.188;2022-08-19T01:18:35;19.98;;;13.07;;
31818;SDS011;18384;48.860;9.188;2022-08-19T01:21:07;18.73;;;12.00;;
31818;SDS011;18384;48.860;9.188;2022-08-19T01:23:56;19.23;;;12.50;;
31818;SDS011;18384;48.860;9.188;2022-08-19T01:26:23;16.98;;;11.73;;
31818;SDS011;18384;48.860;9.188;2022-08-19T01:28:54;17.25;;;11.25;;
31818;SDS011;18384;48.860;9.188;2022-08-19T01:31:23;19.33;;;12.40;;
31818;SDS011;18384;48.860;9.188;2022-08-19T01:33:51;16.98;;;11.60;;
31818;SDS011;18384;48.860;9.188;2022-08-19T01:36:28;18.17;;;12.15;;
31818;SDS011;18384;48.860;9.188;2022-08-19T01:38:59;18.58;;;12.25;;
31818;SDS011;18384;48.860;9.188;2022-08-19T01:41:28;18.20;;;12.15;;
31818;SDS011;18384;48.860;9.188;2022-08-19T01:43:54;21.17;;;13.35;;
31818;SDS011;18384;48.860;9.188;2022-08-19T01:46:21;20.23;;;12.88;;
31818;SDS011;18384;48.860;9.188;2022-08-19T01:48:47;19.70;;;13.18;;
31818;SDS011;18384;48.860;9.188;2022-08-19T01:51:13;19.02;;;12.75;;
31818;SDS011;18384;48.860;9.188;2022-08-19T01:53:40;19.35;;;13.45;;
31818;SDS011;18384;48.860;9.188;2022-08-19T01:56:07;19.17;;;13.18;;
31818;SDS011;18384;48.860;9.188;2022-08-19T01:58:35;19.67;;;13.23;;
31818;SDS011;18384;48.860;9.188;2022-08-19T02:01:11;20.75;;;13.70;;
31818;SDS011;18384;48.860;9.188;2022-08-19T02:03:39;24.12;;;13.98;;
31818;SDS011;18384;48.860;9.188;2022-08-19T02:06:05;19.35;;;13.20;;
31818;SDS011;18384;48.860;9.188;2022-08-19T02:08:33;20.48;;;14.43;;
31818;SDS011;18384;48.860;9.188;2022-08-19T02:11:02;20.35;;;13.80;;
31818;SDS011;18384;48.860;9.188;2022-08-19T02:13:29;25.05;;;15.70;;
31818;SDS011;18384;48.860;9.188;2022-08-19T02:15:55;21.30;;;14.13;;
31818;SDS011;18384;48.860;9.188;2022-08-19T02:18:23;19.92;;;14.10;;
31818;SDS011;18384;48.860;9.188;2022-08-19T02:20:49;20.75;;;14.30;;
31818;SDS011;18384;48.860;9.188;2022-08-19T02:23:16;22.73;;;15.27;;
31818;SDS011;18384;48.860;9.188;2022-08-19T02:25:44;23.48;;;15.43;;
31818;SDS011;18384;48.860;9.188;2022-08-19T02:28:12;24.40;;;14.57;;
31818;SDS011;18384;48.860;9.188;2022-08-19T02:30:40;23.35;;;15.85;;
31818;SDS011;18384;48.860;9.188;2022-08-19T02:33:07;22.23;;;15.73;;
31818;SDS011;18384;48.860;9.188;2022-08-19T02:35:33;26.27;;;15.65;;
31818;SDS011;18384;48.860;9.188;2022-08-19T02:38:00;20.70;;;15.40;;
31818;SDS011;18384;48.860;9.188;2022-08-19T02:40:55;23.90;;;15.77;;
31818;SDS011;18384;48.860;9.188;2022-08-19T02:43:28;23.83;;;15.65;;
31818;SDS011;18384;48.860;9.188;2022-08-19T02:45:57;26.48;;;16.48;;
31818;SDS011;18384;48.860;9.188;2022-08-19T02:48:24;28.05;;;15.82;;
31818;SDS011;18384;48.860;9.188;2022-08-19T02:50:51;26.60;;;16.83;;
31818;SDS011;18384;48.860;9.188;2022-08-19T02:53:22;30.42;;;17.12;;
31818;SDS011;18384;48.860;9.188;2022-08-19T02:55:51;30.83;;;17.40;;
31818;SDS011;18384;48.860;9.188;2022-08-19T02:58:17;28.25;;;18.27;;
31818;SDS011;18384;48.860;9.188;2022-08-19T03:00:51;25.42;;;18.85;;
31818;SDS011;18384;48.860;9.188;2022-08-19T03:03:19;23.55;;;16.30;;
31818;SDS011;18384;48.860;9.188;2022-08-19T03:05:46;27.00;;;17.87;;
31818;SDS011;18384;48.860;9.188;2022-08-19T03:08:13;25.08;;;17.17;;
31818;SDS011;18384;48.860;9.188;2022-08-19T03:10:40;30.60;;;17.25;;
31818;SDS011;18384;48.860;9.188;2022-08-19T03:13:09;25.17;;;18.15;;
31818;SDS011;18384;48.860;9.188;2022-08-19T03:15:42;29.25;;;17.37;;
31818;SDS011;18384;48.860;9.188;2022-08-19T03:18:10;25.42;;;17.35;;
31818;SDS011;18384;48.860;9.188;2022-08-19T03:20:42;24.60;;;17.27;;
31818;SDS011;18384;48.860;9.188;2022-08-19T03:23:13;24.15;;;17.25;;
31818;SDS011;18384;48.860;9.188;2022-08-19T03:25:42;25.85;;;18.48;;
31818;SDS011;18384;48.860;9.188;2022-08-19T03:28:12;32.80;;;17.98;;
31818;SDS011;18384;48.860;9.188;2022-08-19T03:30:40;25.88;;;18.37;;
31818;SDS011;18384;48.860;9.188;2022-08-19T03:33:09;27.65;;;18.98;;
31818;SDS011;18384;48.860;9.188;2022-08-19T03:35:38;27.33;;;19.50;;
31818;SDS011;18384;48.860;9.188;2022-08-19T03:38:05;29.00;;;19.08;;
31818;SDS011;18384;48.860;9.188;2022-08-19T03:40:32;28.00;;;18.45;;
31818;SDS011;18384;48.860;9.188;2022-08-19T03:43:02;24.77;;;18.02;;
31818;SDS011;18384;48.860;9.188;2022-08-19T03:45:28;30.92;;;17.60;;
31818;SDS011;18384;48.860;9.188;2022-08-19T03:47:54;25.33;;;18.48;;
31818;SDS011;18384;48.860;9.188;2022-08-19T03:50:21;29.42;;;20.08;;
31818;SDS011;18384;48.860;9.188;2022-08-19T03:55:15;29.75;;;18.87;;
31818;SDS011;18384;48.860;9.188;2022-08-19T03:57:42;28.60;;;17.98;;
31818;SDS011;18384;48.860;9.188;2022-08-19T04:00:10;32.20;;;21.00;;
31818;SDS011;18384;48.860;9.188;2022-08-19T04:02:37;29.30;;;18.48;;
31818;SDS011;18384;48.860;9.188;2022-08-19T04:05:03;26.45;;;18.30;;
31818;SDS011;18384;48.860;9.188;2022-08-19T04:07:30;29.05;;;19.37;;
31818;SDS011;18384;48.860;9.188;2022-08-19T04:09:56;25.60;;;18.00;;
31818;SDS011;18384;48.860;9.188;2022-08-19T04:12:22;30.92;;;18.77;;
31818;SDS011;18384;48.860;9.188;2022-08-19T04:14:49;27.08;;;19.23;;
31818;SDS011;18384;48.860;9.188;2022-08-19T04:17:15;25.37;;;18.42;;
31818;SDS011;18384;48.860;9.188;2022-08-19T04:19:41;28.25;;;19.75;;
31818;SDS011;18384;48.860;9.188;2022-08-19T04:22:08;28.65;;;20.17;;
31818;SDS011;18384;48.860;9.188;2022-08-19T04:24:36;29.35;;;20.37;;
31818;SDS011;18384;48.860;9.188;2022-08-19T04:29:29;31.90;;;20.03;;
31818;SDS011;18384;48.860;9.188;2022-08-19T04:31:55;27.23;;;19.60;;
31818;SDS011;18384;48.860;9.188;2022-08-19T04:34:24;34.05;;;20.25;;
31818;SDS011;18384;48.860;9.188;2022-08-19T04:36:54;32.05;;;20.75;;
31818;SDS011;18384;48.860;9.188;2022-08-19T04:39:23;27.85;;;20.77;;
31818;SDS011;18384;48.860;9.188;2022-08-19T04:42:12;28.42;;;19.58;;
31818;SDS011;18384;48.860;9.188;2022-08-19T04:44:59;32.80;;;21.48;;
31818;SDS011;18384;48.860;9.188;2022-08-19T04:47:25;31.62;;;19.40;;
31818;SDS011;18384;48.860;9.188;2022-08-19T04:49:51;28.60;;;20.50;;
31818;SDS011;18384;48.860;9.188;2022-08-19T04:52:18;28.42;;;20.45;;
31818;SDS011;18384;48.860;9.188;2022-08-19T04:54:44;29.15;;;21.37;;
31818;SDS011;18384;48.860;9.188;2022-08-19T04:57:10;32.30;;;21.00;;
31818;SDS011;18384;48.860;9.188;2022-08-19T04:59:36;28.65;;;19.58;;
31818;SDS011;18384;48.860;9.188;2022-08-19T05:02:04;29.80;;;20.30;;
31818;SDS011;18384;48.860;9.188;2022-08-19T05:04:33;29.52;;;19.77;;
31818;SDS011;18384;48.860;9.188;2022-08-19T05:07:00;30.08;;;20.62;;
31818;SDS011;18384;48.860;9.188;2022-08-19T05:09:27;27.17;;;19.40;;
31818;SDS011;18384;48.860;9.188;2022-08-19T05:11:54;28.87;;;20.50;;
31818;SDS011;18384;48.860;9.188;2022-08-19T05:16:47;29.40;;;19.35;;
31818;SDS011;18384;48.860;9.188;2022-08-19T05:19:13;27.92;;;20.33;;
31818;SDS011;18384;48.860;9.188;2022-08-19T05:21:58;36.10;;;21.52;;
31818;SDS011;18384;48.860;9.188;2022-08-19T05:24:44;27.87;;;20.23;;
31818;SDS011;18384;48.860;9.188;2022-08-19T05:27:10;28.95;;;19.83;;
31818;SDS011;18384;48.860;9.188;2022-08-19T05:29:36;31.58;;;20.65;;
31818;SDS011;18384;48.860;9.188;2022-08-19T05:32:03;29.35;;;19.35;;
31818;SDS011;18384;48.860;9.188;2022-08-19T05:34:35;25.35;;;19.30;;
31818;SDS011;18384;48.860;9.188;2022-08-19T05:37:03;34.58;;;20.85;;
31818;SDS011;18384;48.860;9.188;2022-08-19T05:39:32;35.40;;;19.87;;
31818;SDS011;18384;48.860;9.188;2022-08-19T05:42:01;32.88;;;19.50;;
31818;SDS011;18384;48.860;9.188;2022-08-19T05:44:32;30.08;;;19.65;;
31818;SDS011;18384;48.860;9.188;2022-08-19T05:47:02;37.08;;;20.73;;
31818;SDS011;18384;48.860;9.188;2022-08-19T05:49:32;31.67;;;20.88;;
31818;SDS011;18384;48.860;9.188;2022-08-19T05:52:04;33.97;;;21.37;;
31818;SDS011;18384;48.860;9.188;2022-08-19T05:54:37;29.17;;;20.62;;
31818;SDS011;18384;48.860;9.188;2022-08-19T05:57:06;27.90;;;20.15;;
31818;SDS011;18384;48.860;9.188;2022-08-19T05:59:34;36.45;;;21.02;;
31818;SDS011;18384;48.860;9.188;2022-08-19T06:02:04;32.90;;;20.95;;
31818;SDS011;18384;48.860;9.188;2022-08-19T06:04:32;31.35;;;19.90;;
31818;SDS011;18384;48.860;9.188;2022-08-19T06:06:58;36.47;;;19.37;;
31818;SDS011;18384;48.860;9.188;2022-08-19T06:09:26;33.35;;;19.25;;
31818;SDS011;18384;48.860;9.188;2022-08-19T06:14:25;35.42;;;19.77;;
31818;SDS011;18384;48.860;9.188;2022-08-19T06:16:57;27.27;;;19.90;;
31818;SDS011;18384;48.860;9.188;2022-08-19T06:19:27;40.03;;;20.58;;
31818;SDS011;18384;48.860;9.188;2022-08-19T06:21:55;28.33;;;18.95;;
31818;SDS011;18384;48.860;9.188;2022-08-19T06:24:24;26.67;;;19.92;;
31818;SDS011;18384;48.860;9.188;2022-08-19T06:26:53;30.08;;;19.10;;
31818;SDS011;18384;48.860;9.188;2022-08-19T06:29:22;27.23;;;19.95;;
31818;SDS011;18384;48.860;9.188;2022-08-19T06:31:51;31.10;;;20.48;;
31818;SDS011;18384;48.860;9.188;2022-08-19T06:34:21;29.67;;;19.45;;
31818;SDS011;18384;48.860;9.188;2022-08-19T06:36:48;29.40;;;20.58;;
31818;SDS011;18384;48.860;9.188;2022-08-19T06:39:17;29.95;;;20.25;;
31818;SDS011;18384;48.860;9.188;2022-08-19T06:41:51;30.02;;;20.33;;
31818;SDS011;18384;48.860;9.188;2022-08-19T06:44:22;27.95;;;20.08;;
31818;SDS011;18384;48.860;9.188;2022-08-19T06:46:54;35.95;;;20.65;;
31818;SDS011;18384;48.860;9.188;2022-08-19T06:49:21;29.40;;;20.42;;
31818;SDS011;18384;48.860;9.188;2022-08-19T06:51:49;40.63;;;21.65;;
31818;SDS011;18384;48.860;9.188;2022-08-19T06:54:17;32.20;;;21.08;;
31818;SDS011;18384;48.860;9.188;2022-08-19T06:56:44;29.95;;;20.15;;
31818;SDS011;18384;48.860;9.188;2022-08-19T06:59:12;29.05;;;20.02;;
31818;SDS011;18384;48.860;9.188;2022-08-19T07:01:49;27.58;;;19.45;;
31818;SDS011;18384;48.860;9.188;2022-08-19T07:04:19;38.10;;;20.58;;
31818;SDS011;18384;48.860;9.188;2022-08-19T07:06:49;25.75;;;19.87;;
31818;SDS011;18384;48.860;9.188;2022-08-19T07:09:22;25.48;;;19.70;;
31818;SDS011;18384;48.860;9.188;2022-08-19T07:14:18;27.83;;;19.48;;
31818;SDS011;18384;48.860;9.188;2022-08-19T07:16:48;32.22;;;19.73;;
31818;SDS011;18384;48.860;9.188;2022-08-19T07:19:17;29.58;;;19.65;;
31818;SDS011;18384;48.860;9.188;2022-08-19T07:21:47;26.12;;;18.75;;
31818;SDS011;18384;48.860;9.188;2022-08-19T07:24:16;26.12;;;17.85;;
31818;SDS011;18384;48.860;9.188;2022-08-19T07:26:43;27.98;;;19.40;;
31818;SDS011;18384;48.860;9.188;2022-08-19T07:29:10;25.67;;;17.73;;
31818;SDS011;18384;48.860;9.188;2022-08-19T07:31:37;25.92;;;18.45;;
31818;SDS011;18384;48.860;9.188;2022-08-19T07:34:05;29.30;;;18.60;;
31818;SDS011;18384;48.860;9.188;2022-08-19T07:36:34;30.85;;;18.55;;
31818;SDS011;18384;48.860;9.188;2022-08-19T07:39:08;31.60;;;17.55;;
31818;SDS011;18384;48.860;9.188;2022-08-19T07:41:52;23.55;;;17.80;;
31818;SDS011;18384;48.860;9.188;2022-08-19T07:44:20;27.37;;;18.15;;
31818;SDS011;18384;48.860;9.188;2022-08-19T07:46:49;24.27;;;16.92;;
31818;SDS011;18384;48.860;9.188;2022-08-19T07:49:18;24.65;;;16.85;;
31818;SDS011;18384;48.860;9.188;2022-08-19T07:51:46;23.45;;;16.80;;
31818;SDS011;18384;48.860;9.188;2022-08-19T07:54:16;23.95;;;18.17;;
31818;SDS011;18384;48.860;9.188;2022-08-19T07:56:45;24.33;;;16.83;;
31818;SDS011;18384;48.860;9.188;2022-08-19T07:59:12;25.40;;;16.77;;
31818;SDS011;18384;48.860;9.188;2022-08-19T08:01:38;22.13;;;15.70;;
31818;SDS011;18384;48.860;9.188;2022-08-19T08:04:05;26.37;;;15.80;;
31818;SDS011;18384;48.860;9.188;2022-08-19T08:06:51;23.58;;;16.75;;
31818;SDS011;18384;48.860;9.188;2022-08-19T08:09:38;29.12;;;17.55;;
31818;SDS011;18384;48.860;9.188;2022-08-19T08:12:09;26.50;;;17.48;;
31818;SDS011;18384;48.860;9.188;2022-08-19T08:14:45;26.62;;;17.75;;
31818;SDS011;18384;48.860;9.188;2022-08-19T08:17:15;24.87;;;16.70;;
31818;SDS011;18384;48.860;9.188;2022-08-19T08:19:44;25.10;;;16.37;;
31818;SDS011;18384;48.860;9.188;2022-08-19T08:22:13;25.30;;;16.55;;
31818;SDS011;18384;48.860;9.188;2022-08-19T08:25:03;29.35;;;16.77;;
31818;SDS011;18384;48.860;9.188;2022-08-19T08:27:37;24.90;;;16.55;;
31818;SDS011;18384;48.860;9.188;2022-08-19T08:30:20;26.08;;;16.35;;
31818;SDS011;18384;48.860;9.188;2022-08-19T08:32:50;34.17;;;16.33;;
31818;SDS011;18384;48.860;9.188;2022-08-19T08:35:17;23.23;;;17.05;;
31818;SDS011;18384;48.860;9.188;2022-08-19T08:37:47;28.70;;;16.90;;
31818;SDS011;18384;48.860;9.188;2022-08-19T08:40:18;26.10;;;17.25;;
31818;SDS011;18384;48.860;9.188;2022-08-19T08:46:11;20.30;;;15.48;;
31818;SDS011;18384;48.860;9.188;2022-08-19T08:52:29;23.95;;;15.63;;
31818;SDS011;18384;48.860;9.188;2022-08-19T08:55:03;25.02;;;15.45;;
31818;SDS011;18384;48.860;9.188;2022-08-19T08:57:41;24.02;;;14.75;;
31818;SDS011;18384;48.860;9.188;2022-08-19T09:01:48;25.20;;;14.18;;
31818;SDS011;18384;48.860;9.188;2022-08-19T09:04:14;21.45;;;15.05;;
31818;SDS011;18384;48.860;9.188;2022-08-19T09:06:50;22.20;;;15.63;;
31818;SDS011;18384;48.860;9.188;2022-08-19T09:17:41;22.58;;;14.38;;
31818;SDS011;18384;48.860;9.188;2022-08-19T09:20:14;20.08;;;13.68;;
31818;SDS011;18384;48.860;9.188;2022-08-19T09:22:46;19.65;;;13.82;;
31818;SDS011;18384;48.860;9.188;2022-08-19T09:25:15;21.40;;;13.70;;
31818;SDS011;18384;48.860;9.188;2022-08-19T09:27:48;20.92;;;13.73;;
31818;SDS011;18384;48.860;9.188;2022-08-19T09:30:18;23.40;;;13.60;;
31818;SDS011;18384;48.860;9.188;2022-08-19T09:32:49;19.55;;;13.35;;
31818;SDS011;18384;48.860;9.188;2022-08-19T09:35:18;25.00;;;13.18;;
31818;SDS011;18384;48.860;9.188;2022-08-19T09:37:49;20.23;;;12.70;;
31818;SDS011;18384;48.860;9.188;2022-08-19T09:40:17;19.60;;;12.70;;
31818;SDS011;18384;48.860;9.188;2022-08-19T09:42:44;17.00;;;12.02;;
31818;SDS011;18384;48.860;9.188;2022-08-19T09:45:15;18.58;;;12.68;;
31818;SDS011;18384;48.860;9.188;2022-08-19T09:47:45;19.02;;;12.75;;
31818;SDS011;18384;48.860;9.188;2022-08-19T09:50:11;19.17;;;11.82;;
31818;SDS011;18384;48.860;9.188;2022-08-19T09:52:38;23.80;;;12.60;;
31818;SDS011;18384;48.860;9.188;2022-08-19T09:55:04;23.50;;;12.35;;
31818;SDS011;18384;48.860;9.188;2022-08-19T09:57:33;16.48;;;12.40;;
31818;SDS011;18384;48.860;9.188;2022-08-19T10:00:00;17.52;;;11.38;;
31818;SDS011;18384;48.860;9.188;2022-08-19T10:02:28;17.27;;;11.27;;
31818;SDS011;18384;48.860;9.188;2022-08-19T10:04:54;20.48;;;12.00;;
31818;SDS011;18384;48.860;9.188;2022-08-19T10:07:38;18.58;;;11.30;;
31818;SDS011;18384;48.860;9.188;2022-08-19T10:12:32;19.15;;;10.98;;
31818;SDS011;18384;48.860;9.188;2022-08-19T10:14:59;17.45;;;10.75;;
31818;SDS011;18384;48.860;9.188;2022-08-19T10:17:26;16.67;;;11.02;;
31818;SDS011;18384;48.860;9.188;2022-08-19T10:19:53;15.38;;;10.55;;
31818;SDS011;18384;48.860;9.188;2022-08-19T10:24:45;20.42;;;11.00;;
31818;SDS011;18384;48.860;9.188;2022-08-19T10:27:12;23.38;;;11.50;;
31818;SDS011;18384;48.860;9.188;2022-08-19T10:29:39;24.58;;;10.75;;
31818;SDS011;18384;48.860;9.188;2022-08-19T10:32:06;17.80;;;10.27;;
31818;SDS011;18384;48.860;9.188;2022-08-19T10:34:34;22.83;;;10.13;;
31818;SDS011;18384;48.860;9.188;2022-08-19T10:37:03;19.50;;;9.60;;
31818;SDS011;18384;48.860;9.188;2022-08-19T10:39:34;16.50;;;9.57;;
31818;SDS011;18384;48.860;9.188;2022-08-19T10:42:05;16.52;;;9.18;;
31818;SDS011;18384;48.860;9.188;2022-08-19T10:44:33;12.88;;;8.98;;
31818;SDS011;18384;48.860;9.188;2022-08-19T10:47:00;15.77;;;9.02;;
31818;SDS011;18384;48.860;9.188;2022-08-19T10:49:28;18.00;;;8.27;;
31818;SDS011;18384;48.860;9.188;2022-08-19T10:54:39;11.57;;;7.10;;
31818;SDS011;18384;48.860;9.188;2022-08-19T10:57:24;11.60;;;6.75;;
31818;SDS011;18384;48.860;9.188;2022-08-19T10:59:55;9.82;;;6.20;;
31818;SDS011;18384;48.860;9.188;2022-08-19T11:02:21;11.38;;;5.93;;
31818;SDS011;18384;48.860;9.188;2022-08-19T11:04:48;10.05;;;6.62;;
31818;SDS011;18384;48.860;9.188;2022-08-19T11:07:16;10.23;;;5.85;;
31818;SDS011;18384;48.860;9.188;2022-08-19T11:12:09;10.95;;;6.15;;
31818;SDS011;18384;48.860;9.188;2022-08-19T11:14:35;10.65;;;6.32;;
31818;SDS011;18384;48.860;9.188;2022-08-19T11:17:03;12.40;;;6.62;;
31818;SDS011;18384;48.860;9.188;2022-08-19T11:19:31;10.07;;;6.28;;
31818;SDS011;18384;48.860;9.188;2022-08-19T11:21:58;14.48;;;6.55;;
31818;SDS011;18384;48.860;9.188;2022-08-19T11:24:26;9.80;;;6.30;;
31818;SDS011;18384;48.860;9.188;2022-08-19T11:26:54;8.93;;;5.97;;
31818;SDS011;18384;48.860;9.188;2022-08-19T11:29:27;14.20;;;6.22;;
31818;SDS011;18384;48.860;9.188;2022-08-19T11:31:54;11.73;;;6.82;;
31818;SDS011;18384;48.860;9.188;2022-08-19T11:34:21;8.88;;;6.35;;
31818;SDS011;18384;48.860;9.188;2022-08-19T11:36:51;10.90;;;6.18;;
31818;SDS011;18384;48.860;9.188;2022-08-19T11:39:18;9.68;;;5.87;;
31818;SDS011;18384;48.860;9.188;2022-08-19T11:41:47;12.20;;;6.12;;
31818;SDS011;18384;48.860;9.188;2022-08-19T11:44:14;15.77;;;6.65;;
31818;SDS011;18384;48.860;9.188;2022-08-19T11:46:41;13.43;;;6.12;;
31818;SDS011;18384;48.860;9.188;2022-08-19T11:49:12;8.98;;;6.18;;
31818;SDS011;18384;48.860;9.188;2022-08-19T11:51:41;11.80;;;6.07;;
31818;SDS011;18384;48.860;9.188;2022-08-19T11:54:11;10.18;;;6.57;;
31818;SDS011;18384;48.860;9.188;2022-08-19T11:56:39;11.02;;;6.53;;
31818;SDS011;18384;48.860;9.188;2022-08-19T11:59:06;12.98;;;6.40;;
31818;SDS011;18384;48.860;9.188;2022-08-19T12:01:33;13.10;;;6.75;;
31818;SDS011;18384;48.860;9.188;2022-08-19T12:03:59;14.27;;;7.43;;
31818;SDS011;18384;48.860;9.188;2022-08-19T12:08:56;15.98;;;7.07;;
31818;SDS011;18384;48.860;9.188;2022-08-19T12:11:24;9.80;;;7.12;;
31818;SDS011;18384;48.860;9.188;2022-08-19T12:13:51;13.62;;;7.87;;
31818;SDS011;18384;48.860;9.188;2022-08-19T12:16:22;18.73;;;7.62;;
31818;SDS011;18384;48.860;9.188;2022-08-19T12:18:53;15.80;;;7.03;;
31818;SDS011;18384;48.860;9.188;2022-08-19T12:21:26;12.80;;;7.15;;
31818;SDS011;18384;48.860;9.188;2022-08-19T12:23:53;14.98;;;7.18;;
31818;SDS011;18384;48.860;9.188;2022-08-19T12:26:22;11.15;;;7.30;;
31818;SDS011;18384;48.860;9.188;2022-08-19T12:28:50;9.38;;;6.55;;
31818;SDS011;18384;48.860;9.188;2022-08-19T12:31:17;12.45;;;6.50;;
31818;SDS011;18384;48.860;9.188;2022-08-19T12:33:44;10.82;;;6.47;;
31818;SDS011;18384;48.860;9.188;2022-08-19T12:36:12;10.32;;;6.95;;
31818;SDS011;18384;48.860;9.188;2022-08-19T12:38:40;12.73;;;5.62;;
31818;SDS011;18384;48.860;9.188;2022-08-19T12:41:10;8.57;;;6.03;;
31818;SDS011;18384;48.860;9.188;2022-08-19T12:43:38;9.25;;;5.65;;
31818;SDS011;18384;48.860;9.188;2022-08-19T12:46:06;10.60;;;6.35;;
31818;SDS011;18384;48.860;9.188;2022-08-19T12:48:34;15.63;;;6.25;;
31818;SDS011;18384;48.860;9.188;2022-08-19T12:51:05;9.75;;;5.93;;
31818;SDS011;18384;48.860;9.188;2022-08-19T12:53:35;18.92;;;5.85;;
31818;SDS011;18384;48.860;9.188;2022-08-19T12:56:02;10.23;;;5.82;;
31818;SDS011;18384;48.860;9.188;2022-08-19T12:58:30;10.20;;;5.70;;
31818;SDS011;18384;48.860;9.188;2022-08-19T13:00:56;9.95;;;5.10;;
31818;SDS011;18384;48.860;9.188;2022-08-19T13:05:54;10.00;;;5.22;;
31818;SDS011;18384;48.860;9.188;2022-08-19T13:08:20;7.87;;;5.43;;
31818;SDS011;18384;48.860;9.188;2022-08-19T13:13:12;7.30;;;5.20;;
31818;SDS011;18384;48.860;9.188;2022-08-19T13:18:08;8.20;;;5.20;;
31818;SDS011;18384;48.860;9.188;2022-08-19T13:20:36;7.47;;;4.45;;
31818;SDS011;18384;48.860;9.188;2022-08-19T13:23:06;9.73;;;4.60;;
31818;SDS011;18384;48.860;9.188;2022-08-19T13:25:34;5.93;;;4.20;;
31818;SDS011;18384;48.860;9.188;2022-08-19T13:28:01;15.77;;;10.43;;
31818;SDS011;18384;48.860;9.188;2022-08-19T13:30:28;15.48;;;10.80;;
31818;SDS011;18384;48.860;9.188;2022-08-19T13:33:12;24.05;;;12.90;;
31818;SDS011;18384;48.860;9.188;2022-08-19T13:35:48;21.75;;;12.63;;
31818;SDS011;18384;48.860;9.188;2022-08-19T13:38:22;26.33;;;14.25;;
31818;SDS011;18384;48.860;9.188;2022-08-19T13:40:49;27.75;;;15.70;;
31818;SDS011;18384;48.860;9.188;2022-08-19T13:43:18;25.35;;;16.73;;
31818;SDS011;18384;48.860;9.188;2022-08-19T13:45:47;24.25;;;16.70;;
31818;SDS011;18384;48.860;9.188;2022-08-19T13:48:20;29.67;;;17.35;;
31818;SDS011;18384;48.860;9.188;2022-08-19T13:50:47;26.73;;;17.02;;
31818;SDS011;18384;48.860;9.188;2022-08-19T13:53:13;23.83;;;17.45;;
31818;SDS011;18384;48.860;9.188;2022-08-19T13:55:41;35.08;;;19.23;;
31818;SDS011;18384;48.860;9.188;2022-08-19T13:58:09;28.85;;;20.30;;
31818;SDS011;18384;48.860;9.188;2022-08-19T14:00:39;29.60;;;20.25;;
31818;SDS011;18384;48.860;9.188;2022-08-19T14:03:09;26.58;;;18.80;;
31818;SDS011;18384;48.860;9.188;2022-08-19T14:08:01;32.05;;;22.15;;
31818;SDS011;18384;48.860;9.188;2022-08-19T14:10:28;30.23;;;20.15;;
31818;SDS011;18384;48.860;9.188;2022-08-19T14:12:57;31.10;;;21.35;;
31818;SDS011;18384;48.860;9.188;2022-08-19T14:15:26;33.58;;;22.70;;
31818;SDS011;18384;48.860;9.188;2022-08-19T14:17:53;28.73;;;20.67;;
31818;SDS011;18384;48.860;9.188;2022-08-19T14:20:19;32.15;;;22.10;;
31818;SDS011;18384;48.860;9.188;2022-08-19T14:22:46;31.05;;;21.80;;
31818;SDS011;18384;48.860;9.188;2022-08-19T14:25:15;27.10;;;20.65;;
31818;SDS011;18384;48.860;9.188;2022-08-19T14:27:50;36.20;;;21.25;;
31818;SDS011;18384;48.860;9.188;2022-08-19T14:30:19;32.58;;;21.87;;
31818;SDS011;18384;48.860;9.188;2022-08-19T14:32:58;33.35;;;21.50;;
31818;SDS011;18384;48.860;9.188;2022-08-19T14:35:27;31.33;;;21.60;;
31818;SDS011;18384;48.860;9.188;2022-08-19T14:37:55;31.27;;;21.65;;
31818;SDS011;18384;48.860;9.188;2022-08-19T14:40:23;31.12;;;22.25;;
31818;SDS011;18384;48.860;9.188;2022-08-19T14:42:52;31.00;;;21.92;;
31818;SDS011;18384;48.860;9.188;2022-08-19T14:45:27;27.98;;;21.02;;
31818;SDS011;18384;48.860;9.188;2022-08-19T14:47:54;39.40;;;22.90;;
31818;SDS011;18384;48.860;9.188;2022-08-19T14:52:46;33.88;;;21.23;;
31818;SDS011;18384;48.860;9.188;2022-08-19T14:55:17;24.45;;;20.00;;
31818;SDS011;18384;48.860;9.188;2022-08-19T14:57:43;32.03;;;21.35;;
31818;SDS011;18384;48.860;9.188;2022-08-19T15:00:10;33.05;;;21.02;;
31818;SDS011;18384;48.860;9.188;2022-08-19T15:02:38;30.70;;;20.48;;
31818;SDS011;18384;48.860;9.188;2022-08-19T15:05:06;30.85;;;21.77;;
31818;SDS011;18384;48.860;9.188;2022-08-19T15:07:32;32.28;;;22.35;;
31818;SDS011;18384;48.860;9.188;2022-08-19T15:12:25;31.10;;;21.33;;
31818;SDS011;18384;48.860;9.188;2022-08-19T15:17:17;31.17;;;21.55;;
31818;SDS011;18384;48.860;9.188;2022-08-19T15:19:44;26.65;;;20.20;;
31818;SDS011;18384;48.860;9.188;2022-08-19T15:22:10;31.37;;;21.70;;
31818;SDS011;18384;48.860;9.188;2022-08-19T15:24:37;32.00;;;21.30;;
31818;SDS011;18384;48.860;9.188;2022-08-19T15:27:03;29.98;;;21.00;;
31818;SDS011;18384;48.860;9.188;2022-08-19T15:29:30;28.58;;;19.95;;
31818;SDS011;18384;48.860;9.188;2022-08-19T15:31:57;27.65;;;21.08;;
31818;SDS011;18384;48.860;9.188;2022-08-19T15:34:24;26.80;;;20.23;;
31818;SDS011;18384;48.860;9.188;2022-08-19T15:36:51;26.20;;;19.65;;